Time;durP1;ratioP1;P1;durP2;ratioP2;P2;SDS_P1;SDS_P2;PMS_P1;PMS_P2;Temp;Humidity;BMP_temperature;BMP_pressure;BME280_temperature;BME280_humidity;BME280_pressure;Samples;Min_cycle;Max_cycle;Signal;HPM_P1;HPM_P2
2021/10/31 00:02:56;;;;;;;4.65;2.47;;;18.70;57.60;;;;;;6198970;28;20070;-70
2021/10/31 00:05:56;;;;;;;5.60;2.80;;;18.60;57.50;;;;;;6199143;28;20073;-70
2021/10/31 00:08:57;;;;;;;4.80;2.45;;;18.60;57.60;;;;;;6199742;28;20039;-69
2021/10/31 00:12:00;;;;;;;4.35;2.17;;;18.50;58.30;;;;;;6199067;28;20062;-70
2021/10/31 00:15:01;;;;;;;6.63;2.80;;;18.50;57.70;;;;;;6200410;28;20069;-69
2021/10/31 00:18:02;;;;;;;4.15;2.55;;;18.50;57.80;;;;;;6199032;28;20073;-70
2021/10/31 00:21:03;;;;;;;5.53;3.10;;;18.50;57.80;;;;;;6175767;28;20047;-70
2021/10/31 00:24:05;;;;;;;6.30;2.50;;;18.60;58.00;;;;;;6182606;28;20062;-70
2021/10/31 00:27:05;;;;;;;5.93;2.92;;;18.60;58.10;;;;;;6198883;28;20042;-70
2021/10/31 00:30:07;;;;;;;6.53;2.95;;;18.60;58.20;;;;;;6198964;28;20356;-69
2021/10/31 00:33:08;;;;;;;5.43;2.42;;;18.60;58.50;;;;;;6199199;28;20035;-69
2021/10/31 00:36:09;;;;;;;5.30;2.67;;;18.60;58.60;;;;;;6203060;28;20058;-70
2021/10/31 00:39:10;;;;;;;4.15;2.60;;;18.60;58.60;;;;;;6202460;28;20046;-70
2021/10/31 00:42:11;;;;;;;5.05;2.78;;;18.70;58.60;;;;;;6202991;28;20105;-69
2021/10/31 00:45:11;;;;;;;4.97;2.38;;;18.70;58.60;;;;;;6187127;28;20052;-70
2021/10/31 00:48:12;;;;;;;6.35;3.10;;;18.70;58.60;;;;;;6203063;28;20038;-70
2021/10/31 00:51:13;;;;;;;6.82;3.72;;;18.60;58.50;;;;;;6202258;28;20035;-70
2021/10/31 00:54:15;;;;;;;10.50;4.35;;;18.70;58.60;;;;;;6197485;28;20046;-70
2021/10/31 00:57:16;;;;;;;6.00;3.67;;;18.60;58.90;;;;;;6203609;28;20113;-69
2021/10/31 01:00:17;;;;;;;7.65;3.60;;;18.50;59.20;;;;;;6186709;28;20081;-70
2021/10/31 01:03:18;;;;;;;10.07;3.85;;;18.40;59.30;;;;;;6203298;28;20058;-69
2021/10/31 01:06:44;;;;;;;10.15;4.60;;;18.30;59.60;;;;;;6203914;28;20030;-70
2021/10/31 01:10:24;;;;;;;7.93;4.03;;;18.20;60.10;;;;;;6200701;28;20039;-70
2021/10/31 01:14:02;;;;;;;11.30;4.47;;;18.10;60.70;;;;;;6170524;28;20346;-69
2021/10/31 01:17:16;;;;;;;8.43;4.35;;;18.00;61.00;;;;;;6173151;28;22869;-70
2021/10/31 01:20:40;;;;;;;9.77;5.22;;;18.00;61.60;;;;;;6187884;28;20034;-70
2021/10/31 01:24:02;;;;;;;12.18;5.35;;;17.90;61.90;;;;;;6198526;28;20038;-70
2021/10/31 01:27:14;;;;;;;8.10;4.63;;;17.80;62.10;;;;;;6198714;28;20050;-70
2021/10/31 01:30:44;;;;;;;11.32;4.85;;;17.80;62.30;;;;;;6179191;28;20526;-69
2021/10/31 01:34:23;;;;;;;13.48;5.10;;;17.70;62.80;;;;;;6132150;29;20043;-70
2021/10/31 01:37:51;;;;;;;10.18;5.47;;;17.60;63.30;;;;;;6075273;29;20355;-69
2021/10/31 01:41:16;;;;;;;13.13;5.07;;;17.60;63.80;;;;;;6076094;29;20052;-70
2021/10/31 01:44:32;;;;;;;9.93;5.53;;;17.50;64.00;;;;;;6076624;29;20092;-69
2021/10/31 01:47:39;;;;;;;13.80;5.40;;;17.50;64.30;;;;;;6076085;29;20036;-70
2021/10/31 01:50:43;;;;;;;13.77;4.55;;;17.50;64.40;;;;;;6096176;29;20058;-70
2021/10/31 01:54:00;;;;;;;8.55;4.80;;;17.50;64.40;;;;;;6093136;29;20051;-69
2021/10/31 01:57:06;;;;;;;8.40;4.18;;;17.50;64.40;;;;;;6084187;29;20036;-69
2021/10/31 02:00:10;;;;;;;10.93;4.82;;;17.50;64.20;;;;;;6100451;29;20525;-69
2021/10/31 02:03:17;;;;;;;12.40;4.87;;;17.50;64.20;;;;;;6095285;29;20446;-69
2021/10/31 02:06:19;;;;;;;9.30;4.82;;;17.50;64.20;;;;;;6101231;29;20044;-69
2021/10/31 02:09:24;;;;;;;11.63;5.47;;;17.50;64.20;;;;;;6091991;28;20058;-69
2021/10/31 02:12:26;;;;;;;11.32;4.90;;;17.50;64.30;;;;;;6123114;28;20069;-69
2021/10/31 02:15:28;;;;;;;10.90;4.95;;;17.50;64.50;;;;;;6199139;28;20049;-69
2021/10/31 02:18:29;;;;;;;11.02;5.03;;;17.50;64.80;;;;;;6198240;28;20463;-70
2021/10/31 02:21:33;;;;;;;10.35;5.30;;;17.40;65.90;;;;;;6173561;28;20042;-70
2021/10/31 02:24:36;;;;;;;12.40;4.72;;;17.40;65.20;;;;;;6174723;28;20053;-69
2021/10/31 02:27:42;;;;;;;9.50;4.78;;;17.40;65.10;;;;;;6173576;28;20416;-70
2021/10/31 02:30:43;;;;;;;7.68;3.72;;;17.40;65.20;;;;;;6173680;28;20055;-69
2021/10/31 02:33:44;;;;;;;9.57;4.63;;;17.40;65.10;;;;;;6189794;28;20062;-69
2021/10/31 02:36:46;;;;;;;6.20;3.35;;;17.40;65.00;;;;;;6157330;28;20038;-69
2021/10/31 02:39:47;;;;;;;6.55;3.42;;;17.40;65.20;;;;;;6173436;28;20468;-69
2021/10/31 02:42:48;;;;;;;8.70;4.00;;;17.40;65.10;;;;;;6197525;28;20090;-69
2021/10/31 02:45:49;;;;;;;10.55;4.32;;;17.40;65.30;;;;;;6198585;28;20158;-69
2021/10/31 02:48:51;;;;;;;7.68;4.25;;;17.30;65.80;;;;;;6196225;28;20054;-69
2021/10/31 02:52:02;;;;;;;10.40;4.63;;;17.20;65.90;;;;;;6194853;28;20042;-69
2021/10/31 02:55:12;;;;;;;11.18;5.70;;;17.20;66.00;;;;;;6197753;28;20070;-69
2021/10/31 02:58:25;;;;;;;11.38;5.53;;;17.20;66.10;;;;;;6180284;28;20034;-69
2021/10/31 03:01:28;;;;;;;10.43;5.20;;;17.20;66.20;;;;;;6193790;28;20049;-70
2021/10/31 03:04:31;;;;;;;10.95;5.20;;;17.20;66.20;;;;;;6197368;28;20475;-69
2021/10/31 03:07:32;;;;;;;8.45;4.63;;;17.20;66.30;;;;;;6196287;28;20030;-70
2021/10/31 03:10:32;;;;;;;9.20;4.18;;;17.20;66.50;;;;;;6197406;28;20082;-70
2021/10/31 03:13:34;;;;;;;8.95;4.78;;;17.10;66.60;;;;;;6197554;28;20345;-69
2021/10/31 03:16:35;;;;;;;9.60;4.72;;;17.20;66.80;;;;;;6196250;28;20129;-70
2021/10/31 03:19:36;;;;;;;11.75;5.20;;;17.10;66.80;;;;;;6195740;28;20038;-69
2021/10/31 03:22:38;;;;;;;10.32;5.10;;;17.10;66.90;;;;;;6202870;28;20145;-70
2021/10/31 03:25:38;;;;;;;13.90;5.93;;;17.10;66.90;;;;;;6196337;28;20041;-69
2021/10/31 03:28:39;;;;;;;11.07;5.80;;;17.10;66.90;;;;;;6197299;28;20073;-70
2021/10/31 03:31:40;;;;;;;11.45;5.63;;;17.10;66.90;;;;;;6197737;28;20060;-70
2021/10/31 03:34:41;;;;;;;9.65;5.53;;;17.10;67.60;;;;;;6186935;28;20050;-70
2021/10/31 03:37:42;;;;;;;12.60;5.43;;;17.10;66.90;;;;;;6212766;28;20050;-70
2021/10/31 03:40:43;;;;;;;10.13;5.68;;;17.00;66.90;;;;;;6197729;28;20054;-70
2021/10/31 03:43:44;;;;;;;11.30;4.65;;;17.00;67.20;;;;;;6197094;28;20524;-70
2021/10/31 03:46:46;;;;;;;12.93;6.07;;;17.00;67.20;;;;;;6197077;28;20030;-70
2021/10/31 03:49:46;;;;;;;10.50;5.22;;;16.90;67.20;;;;;;6196232;28;20352;-70
2021/10/31 03:52:48;;;;;;;11.13;4.38;;;17.00;67.40;;;;;;6196846;28;20038;-70
2021/10/31 03:55:49;;;;;;;7.07;3.70;;;16.90;67.50;;;;;;6197101;28;20042;-70
2021/10/31 03:58:50;;;;;;;6.28;3.83;;;17.00;67.50;;;;;;6196710;28;20100;-70
2021/10/31 04:01:51;;;;;;;8.38;4.50;;;16.90;67.40;;;;;;6196322;28;20141;-70
2021/10/31 04:04:52;;;;;;;12.52;4.78;;;17.00;67.50;;;;;;6197872;28;20034;-70
2021/10/31 04:07:54;;;;;;;7.80;4.60;;;17.00;67.50;;;;;;6197633;28;20129;-72
2021/10/31 04:10:55;;;;;;;8.73;5.05;;;17.00;67.40;;;;;;6182436;28;20038;-70
2021/10/31 04:13:56;;;;;;;8.48;4.53;;;17.00;67.30;;;;;;6218021;28;20034;-70
2021/10/31 04:16:57;;;;;;;13.43;4.90;;;17.00;67.40;;;;;;6201824;28;20049;-70
2021/10/31 04:19:58;;;;;;;8.35;4.70;;;17.00;67.40;;;;;;6202331;28;20030;-70
2021/10/31 04:22:59;;;;;;;9.43;3.80;;;17.00;67.30;;;;;;6201451;28;20459;-69
2021/10/31 04:26:00;;;;;;;14.57;5.38;;;17.00;67.30;;;;;;6201413;28;20038;-69
2021/10/31 04:29:01;;;;;;;9.10;5.15;;;17.00;67.40;;;;;;6202485;28;20050;-69
2021/10/31 04:32:02;;;;;;;13.15;5.18;;;17.00;67.40;;;;;;6202741;28;20494;-69
2021/10/31 04:35:03;;;;;;;10.35;5.05;;;17.00;67.40;;;;;;6202221;28;20041;-70
2021/10/31 04:38:23;;;;;;;12.02;5.70;;;17.00;67.40;;;;;;6201019;28;20114;-70
2021/10/31 04:41:27;;;;;;;9.68;4.97;;;16.90;67.40;;;;;;6201909;28;20058;-70
2021/10/31 04:44:28;;;;;;;8.70;4.25;;;16.90;67.40;;;;;;6202122;28;20089;-70
2021/10/31 04:47:29;;;;;;;10.20;5.18;;;16.80;67.50;;;;;;6201212;28;20133;-70
2021/10/31 04:50:30;;;;;;;8.55;4.53;;;16.80;67.70;;;;;;6201607;28;20069;-70
2021/10/31 04:53:31;;;;;;;8.82;4.63;;;16.80;67.90;;;;;;6201987;28;20049;-70
2021/10/31 04:56:31;;;;;;;9.70;4.90;;;16.70;68.00;;;;;;6201723;28;20045;-70
2021/10/31 04:59:32;;;;;;;10.68;4.85;;;16.70;68.20;;;;;;6200091;28;20038;-71
2021/10/31 05:02:33;;;;;;;9.68;4.30;;;16.70;68.20;;;;;;6200846;28;20064;-70
2021/10/31 05:05:34;;;;;;;8.50;4.30;;;16.70;68.30;;;;;;6201902;28;20611;-70
2021/10/31 05:08:35;;;;;;;11.25;4.65;;;16.70;68.30;;;;;;6199321;28;20074;-70
2021/10/31 05:11:36;;;;;;;12.65;5.30;;;16.70;68.20;;;;;;6216537;28;20181;-71
2021/10/31 05:14:37;;;;;;;12.82;4.65;;;16.70;68.30;;;;;;6200732;28;20038;-71
2021/10/31 05:17:39;;;;;;;8.32;4.53;;;16.70;68.20;;;;;;6201549;28;20043;-70
2021/10/31 05:20:40;;;;;;;8.00;3.78;;;16.60;68.40;;;;;;6183131;28;20446;-70
2021/10/31 05:23:41;;;;;;;10.18;4.38;;;16.60;68.50;;;;;;6199638;28;20052;-70
2021/10/31 05:26:41;;;;;;;6.47;3.72;;;16.60;68.60;;;;;;6201470;28;20035;-70
2021/10/31 05:29:42;;;;;;;8.77;4.30;;;16.60;68.60;;;;;;6200136;28;20367;-70
2021/10/31 05:32:43;;;;;;;5.82;3.35;;;16.60;68.60;;;;;;6201162;28;20093;-70
2021/10/31 05:35:44;;;;;;;8.30;3.40;;;16.60;68.60;;;;;;6200238;28;20170;-70
2021/10/31 05:38:46;;;;;;;5.55;3.13;;;16.60;68.50;;;;;;6199978;28;20062;-71
2021/10/31 05:41:47;;;;;;;8.73;3.50;;;16.60;68.40;;;;;;6199965;28;20044;-69
2021/10/31 05:44:48;;;;;;;9.07;3.60;;;16.70;68.30;;;;;;6200918;28;20042;-69
2021/10/31 05:47:51;;;;;;;11.82;4.28;;;16.70;68.10;;;;;;6199342;28;20046;-69
2021/10/31 05:50:54;;;;;;;6.50;3.20;;;16.70;68.10;;;;;;6200393;28;20092;-69
2021/10/31 05:53:55;;;;;;;6.30;2.88;;;16.70;68.00;;;;;;6200007;28;20077;-69
2021/10/31 05:56:56;;;;;;;5.00;2.50;;;16.70;67.90;;;;;;6200325;28;20042;-70
2021/10/31 05:59:57;;;;;;;6.72;3.53;;;16.70;67.80;;;;;;6199595;28;20361;-69
2021/10/31 06:02:58;;;;;;;5.80;2.97;;;16.70;67.70;;;;;;6200136;28;20475;-69
2021/10/31 06:06:00;;;;;;;4.50;2.45;;;16.80;68.40;;;;;;6197970;28;20101;-69
2021/10/31 06:09:01;;;;;;;4.75;2.78;;;16.80;67.40;;;;;;6201621;28;20042;-69
2021/10/31 06:12:04;;;;;;;6.30;3.05;;;16.80;67.30;;;;;;6200998;28;20042;-69
2021/10/31 06:15:06;;;;;;;5.63;3.00;;;16.80;67.10;;;;;;6199370;28;20030;-69
2021/10/31 06:18:07;;;;;;;4.25;2.67;;;16.80;67.20;;;;;;6201541;28;20360;-69
2021/10/31 06:21:08;;;;;;;8.52;3.25;;;16.80;67.10;;;;;;6200692;28;20045;-69
2021/10/31 06:24:09;;;;;;;5.15;3.10;;;16.80;67.00;;;;;;6159743;28;20038;-69
2021/10/31 06:27:10;;;;;;;5.75;2.80;;;16.90;66.90;;;;;;6201134;28;20031;-69
2021/10/31 06:30:11;;;;;;;6.70;3.50;;;16.90;67.00;;;;;;6200954;28;20068;-69
2021/10/31 06:33:12;;;;;;;7.45;3.65;;;16.80;67.00;;;;;;6199689;28;20034;-69
2021/10/31 06:36:13;;;;;;;6.30;3.17;;;16.80;66.90;;;;;;6200922;28;20333;-69
2021/10/31 06:39:14;;;;;;;6.07;2.90;;;16.80;66.90;;;;;;6200476;28;20038;-70
2021/10/31 06:42:15;;;;;;;5.07;2.78;;;16.80;66.80;;;;;;6199402;28;20452;-69
2021/10/31 06:45:15;;;;;;;4.43;3.00;;;16.80;66.70;;;;;;6199444;28;20027;-70
2021/10/31 06:48:16;;;;;;;5.05;3.25;;;16.90;66.70;;;;;;6183219;28;20424;-70
2021/10/31 06:51:18;;;;;;;11.52;4.00;;;16.90;66.60;;;;;;6200229;28;20034;-70
2021/10/31 06:54:19;;;;;;;13.20;4.00;;;16.90;66.60;;;;;;6198848;28;20045;-70
2021/10/31 06:57:20;;;;;;;5.75;3.10;;;16.90;67.30;;;;;;6200356;28;20038;-69
2021/10/31 07:00:22;;;;;;;5.97;3.47;;;16.90;66.30;;;;;;6199446;28;20042;-70
2021/10/31 07:03:23;;;;;;;7.75;3.17;;;16.90;66.30;;;;;;6199283;28;20038;-70
2021/10/31 07:06:24;;;;;;;6.00;2.72;;;16.90;66.40;;;;;;6199260;28;20046;-69
2021/10/31 07:09:25;;;;;;;5.80;2.83;;;16.90;66.40;;;;;;6198704;28;20049;-69
2021/10/31 07:12:25;;;;;;;5.55;2.92;;;16.90;66.40;;;;;;6182815;28;20041;-69
2021/10/31 07:15:26;;;;;;;5.95;3.08;;;16.90;66.40;;;;;;6199760;28;20368;-68
2021/10/31 07:18:27;;;;;;;6.47;4.00;;;16.90;66.40;;;;;;6196622;28;20066;-69
2021/10/31 07:21:28;;;;;;;7.63;3.72;;;16.90;66.40;;;;;;6190931;28;20042;-69
2021/10/31 07:24:29;;;;;;;7.00;3.38;;;16.90;66.40;;;;;;6199150;28;20052;-71
2021/10/31 07:27:30;;;;;;;5.03;3.03;;;16.90;66.40;;;;;;6199680;28;20042;-70
2021/10/31 07:30:31;;;;;;;4.70;2.40;;;16.90;66.50;;;;;;6198752;28;20041;-70
2021/10/31 07:33:32;;;;;;;4.32;2.55;;;17.00;66.50;;;;;;6199398;28;20384;-71
2021/10/31 07:36:33;;;;;;;7.32;2.88;;;17.00;66.30;;;;;;6198637;28;20041;-71
2021/10/31 07:39:35;;;;;;;4.38;2.47;;;17.10;66.40;;;;;;6198910;28;20039;-70
2021/10/31 07:42:37;;;;;;;6.95;2.67;;;17.10;66.20;;;;;;6199019;28;20116;-69
2021/10/31 07:45:40;;;;;;;7.55;2.65;;;17.10;66.00;;;;;;6198225;28;20329;-70
2021/10/31 07:48:41;;;;;;;6.78;3.25;;;17.20;65.90;;;;;;6180856;28;20050;-70
2021/10/31 07:51:42;;;;;;;4.28;2.75;;;17.30;65.90;;;;;;6199089;28;20058;-70
2021/10/31 07:54:42;;;;;;;7.95;3.10;;;17.30;65.60;;;;;;6199399;28;20121;-70
2021/10/31 07:57:45;;;;;;;5.25;3.38;;;17.40;65.50;;;;;;6199269;28;20440;-70
2021/10/31 08:00:49;;;;;;;3.63;2.25;;;17.40;65.30;;;;;;6198081;28;20045;-71
2021/10/31 08:03:53;;;;;;;2.67;2.00;;;17.40;65.40;;;;;;6203369;28;20045;-71
2021/10/31 08:06:53;;;;;;;3.50;2.10;;;17.40;65.40;;;;;;6181802;28;20049;-70
2021/10/31 08:09:55;;;;;;;4.88;2.03;;;17.40;65.50;;;;;;6198396;28;20125;-70
2021/10/31 08:12:56;;;;;;;2.47;1.60;;;17.40;65.60;;;;;;6198716;28;20049;-70
2021/10/31 08:15:57;;;;;;;2.55;1.73;;;17.30;65.70;;;;;;6199510;28;20444;-70
2021/10/31 08:18:58;;;;;;;3.65;1.70;;;17.30;65.60;;;;;;6197281;28;20470;-70
2021/10/31 08:21:58;;;;;;;2.38;1.55;;;17.40;65.70;;;;;;6197774;28;20034;-71
2021/10/31 08:25:00;;;;;;;2.70;1.75;;;17.40;65.30;;;;;;6196786;28;20096;-70
2021/10/31 08:28:02;;;;;;;3.90;1.92;;;17.50;65.20;;;;;;6198713;28;20062;-71
2021/10/31 08:31:04;;;;;;;4.95;1.90;;;17.60;65.10;;;;;;6199742;28;20043;-71
2021/10/31 08:34:05;;;;;;;3.95;2.00;;;17.70;64.90;;;;;;6198497;28;20116;-69
2021/10/31 08:37:06;;;;;;;4.32;2.20;;;17.70;64.70;;;;;;6199529;28;20476;-71
2021/10/31 08:40:07;;;;;;;4.00;2.05;;;17.80;64.70;;;;;;6197255;28;20112;-70
2021/10/31 08:43:10;;;;;;;2.92;1.67;;;17.90;64.60;;;;;;6198598;28;20112;-70
2021/10/31 08:46:12;;;;;;;1.33;1.10;;;18.10;64.40;;;;;;6198030;28;20042;-70
2021/10/31 08:49:13;;;;;;;5.53;1.52;;;18.20;63.90;;;;;;6197842;28;20038;-71
2021/10/31 08:52:13;;;;;;;2.47;1.00;;;18.40;63.00;;;;;;6198626;28;20053;-71
2021/10/31 08:55:14;;;;;;;2.40;1.42;;;18.50;62.20;;;;;;6199796;28;20100;-70
2021/10/31 08:58:15;;;;;;;1.65;1.30;;;18.60;62.00;;;;;;6204140;28;20165;-70
2021/10/31 09:01:16;;;;;;;2.55;1.20;;;18.70;61.50;;;;;;6202546;28;20053;-70
2021/10/31 09:04:17;;;;;;;2.13;1.00;;;18.90;61.40;;;;;;6203830;28;20034;-71
2021/10/31 09:07:18;;;;;;;1.50;0.90;;;19.00;60.70;;;;;;6202870;28;20470;-70
2021/10/31 09:10:19;;;;;;;2.67;1.40;;;19.10;60.10;;;;;;6203825;28;20039;-71
2021/10/31 09:13:21;;;;;;;2.00;1.20;;;19.20;59.90;;;;;;6186297;28;20034;-70
2021/10/31 09:16:22;;;;;;;5.57;0.75;;;19.30;59.70;;;;;;6203512;28;20030;-71
2021/10/31 09:19:23;;;;;;;8.20;1.30;;;19.50;59.30;;;;;;6192216;28;20113;-72
2021/10/31 09:22:24;;;;;;;1.58;0.80;;;19.60;58.80;;;;;;6199239;28;20364;-70
2021/10/31 09:25:26;;;;;;;1.80;0.90;;;19.80;58.60;;;;;;6203641;28;20113;-71
2021/10/31 09:28:27;;;;;;;1.48;0.98;;;19.90;58.40;;;;;;6203560;28;20491;-71
2021/10/31 09:31:28;;;;;;;2.30;1.20;;;19.90;58.10;;;;;;6203671;28;20042;-71
2021/10/31 09:34:29;;;;;;;1.95;0.93;;;20.00;58.00;;;;;;6203203;28;20038;-72
2021/10/31 09:37:30;;;;;;;3.67;1.20;;;20.10;57.70;;;;;;6202184;28;20065;-70
2021/10/31 09:40:34;;;;;;;3.50;0.95;;;20.10;57.40;;;;;;6201184;28;20459;-70
2021/10/31 09:43:46;;;;;;;4.50;0.95;;;20.20;57.40;;;;;;6201969;28;20042;-71
2021/10/31 09:46:47;;;;;;;2.28;1.15;;;20.20;57.30;;;;;;6191129;28;20092;-71
2021/10/31 09:49:49;;;;;;;2.45;1.05;;;20.20;57.30;;;;;;6201366;28;20057;-71
2021/10/31 09:52:51;;;;;;;7.47;3.42;;;20.20;57.40;;;;;;6202561;28;20133;-71
2021/10/31 09:55:53;;;;;;;4.95;1.70;;;20.30;57.50;;;;;;6201561;28;20423;-70
2021/10/31 09:58:58;;;;;;;3.20;1.25;;;20.50;57.20;;;;;;6202402;28;20475;-70
2021/10/31 10:05:04;;;;;;;18.60;6.38;;;21.00;56.10;;;;;;6202188;28;20049;-70
2021/10/31 10:08:12;;;;;;;7.93;2.85;;;21.20;55.90;;;;;;6199998;28;20137;-70
2021/10/31 10:11:18;;;;;;;2.10;1.10;;;21.30;55.90;;;;;;6201976;28;20026;-69
2021/10/31 10:14:31;;;;;;;4.25;1.50;;;21.50;55.70;;;;;;6202058;28;20069;-69
2021/10/31 10:17:51;;;;;;;6.20;2.50;;;21.60;55.40;;;;;;6201953;28;20077;-71
2021/10/31 10:20:52;;;;;;;3.45;2.47;;;21.70;54.90;;;;;;6200305;28;20379;-71
2021/10/31 10:23:59;;;;;;;3.28;1.75;;;21.80;54.40;;;;;;6200818;28;20044;-71
2021/10/31 10:27:03;;;;;;;3.17;0.85;;;22.00;54.30;;;;;;6200483;28;20374;-71
2021/10/31 10:30:16;;;;;;;8.68;3.53;;;22.20;53.90;;;;;;6201754;28;20062;-71
2021/10/31 10:33:21;;;;;;;3.80;2.13;;;22.50;53.40;;;;;;6201541;28;20042;-70
2021/10/31 10:36:23;;;;;;;3.70;1.45;;;22.70;53.00;;;;;;6200800;28;20050;-71
2021/10/31 10:39:32;;;;;;;6.47;1.60;;;22.80;52.80;;;;;;6200239;28;20128;-70
2021/10/31 10:42:45;;;;;;;2.33;0.90;;;22.90;52.40;;;;;;6199549;28;20041;-70
2021/10/31 10:45:46;;;;;;;4.63;0.70;;;23.10;52.30;;;;;;6199161;28;20037;-71
2021/10/31 10:48:56;;;;;;;4.43;0.80;;;23.20;51.80;;;;;;6199719;28;20042;-70
2021/10/31 10:52:20;;;;;;;1.98;0.65;;;23.30;51.70;;;;;;6201375;28;20038;-70
2021/10/31 10:55:34;;;;;;;0.82;0.82;;;23.30;51.60;;;;;;6197769;28;20049;-70
2021/10/31 10:58:35;;;;;;;1.45;1.15;;;23.30;51.40;;;;;;6199830;28;20038;-70
2021/10/31 11:01:35;;;;;;;0.70;0.70;;;23.30;51.40;;;;;;6199954;28;20066;-70
2021/10/31 11:04:38;;;;;;;1.98;1.40;;;23.30;51.40;;;;;;6193979;28;20475;-71
2021/10/31 11:07:48;;;;;;;2.42;1.23;;;23.30;51.40;;;;;;6199810;28;20108;-70
2021/10/31 11:10:54;;;;;;;2.55;0.80;;;23.30;51.40;;;;;;6199173;28;20034;-71
2021/10/31 11:13:57;;;;;;;2.72;0.98;;;23.50;51.30;;;;;;6214952;28;20045;-71
2021/10/31 11:17:00;;;;;;;5.25;2.38;;;23.50;50.90;;;;;;6198594;28;20088;-71
2021/10/31 11:20:04;;;;;;;2.45;1.05;;;23.60;50.90;;;;;;6197686;28;20395;-70
2021/10/31 11:23:07;;;;;;;2.55;0.70;;;23.60;50.90;;;;;;6197939;28;20120;-70
2021/10/31 11:26:13;;;;;;;1.05;0.80;;;23.60;50.90;;;;;;6192044;28;20452;-72
2021/10/31 11:29:15;;;;;;;3.33;0.50;;;23.50;50.90;;;;;;6199200;28;20042;-71
2021/10/31 11:32:18;;;;;;;1.17;0.60;;;23.50;50.50;;;;;;6197222;28;20045;-71
2021/10/31 11:35:21;;;;;;;1.30;0.70;;;23.50;50.60;;;;;;6199475;28;20062;-71
2021/10/31 11:38:23;;;;;;;1.23;0.38;;;23.40;50.50;;;;;;6198103;28;20050;-70
2021/10/31 11:41:30;;;;;;;0.70;0.60;;;23.40;50.60;;;;;;6198737;28;20034;-71
2021/10/31 11:44:31;;;;;;;0.70;0.50;;;23.50;50.60;;;;;;6189322;28;20185;-70
2021/10/31 11:47:32;;;;;;;2.50;0.80;;;23.50;50.50;;;;;;6198853;28;20042;-71
2021/10/31 11:50:34;;;;;;;0.50;0.50;;;23.60;50.60;;;;;;6199336;28;20050;-70
2021/10/31 11:53:44;;;;;;;0.82;0.57;;;23.70;50.50;;;;;;6200305;28;20096;-71
2021/10/31 11:56:51;;;;;;;1.63;0.73;;;24.00;49.80;;;;;;6199944;28;20038;-70
2021/10/31 12:00:14;;;;;;;1.98;0.77;;;24.10;49.20;;;;;;6199017;28;20045;-71
2021/10/31 12:03:41;;;;;;;0.50;0.50;;;24.30;48.80;;;;;;6198707;28;20470;-71
2021/10/31 12:06:44;;;;;;;1.00;0.43;;;24.50;48.30;;;;;;6199868;28;20034;-70
2021/10/31 12:09:45;;;;;;;3.58;0.80;;;24.70;48.00;;;;;;6199138;28;20077;-71
2021/10/31 12:13:10;;;;;;;0.40;0.30;;;24.90;47.50;;;;;;6200069;28;20066;-70
2021/10/31 12:16:14;;;;;;;0.20;0.20;;;25.00;46.60;;;;;;6195820;28;20043;-70
2021/10/31 12:19:15;;;;;;;0.20;0.20;;;25.30;44.90;;;;;;6190575;28;20030;-71
2021/10/31 12:22:28;;;;;;;0.50;0.50;;;25.50;42.80;;;;;;6196504;28;20038;-71
2021/10/31 12:25:40;;;;;;;0.25;0.25;;;25.70;41.50;;;;;;6196151;28;20356;-71
2021/10/31 12:28:43;;;;;;;0.13;0.10;;;25.90;41.50;;;;;;6194691;28;20038;-70
2021/10/31 12:32:01;;;;;;;0.22;0.15;;;26.00;40.60;;;;;;6198573;28;20057;-71
2021/10/31 12:35:02;;;;;;;;;;;26.10;40.60;;;;;;6201361;28;20042;-71
2021/10/31 12:38:24;;;;;;;2.78;0.10;;;26.20;40.00;;;;;;6201081;28;20342;-70
2021/10/31 12:41:40;;;;;;;0.30;0.30;;;26.20;40.00;;;;;;6196835;28;20137;-70
2021/10/31 12:44:44;;;;;;;1.02;0.10;;;26.30;39.50;;;;;;6200600;28;20030;-70
2021/10/31 12:47:55;;;;;;;0.10;0.10;;;26.30;39.00;;;;;;6199375;28;20463;-70
2021/10/31 12:50:57;;;;;;;0.20;0.20;;;26.50;38.90;;;;;;6198574;28;20093;-70
2021/10/31 12:53:59;;;;;;;1.13;0.38;;;26.60;38.30;;;;;;6199838;28;20364;-71
2021/10/31 12:57:06;;;;;;;2.33;0.30;;;26.80;38.30;;;;;;6198745;28;20042;-70
2021/10/31 13:00:08;;;;;;;0.03;0.03;;;26.90;37.20;;;;;;6199249;28;20058;-70
2021/10/31 13:03:10;;;;;;;0.10;0.10;;;27.00;37.40;;;;;;6198991;28;20034;-70
2021/10/31 13:06:12;;;;;;;0.40;0.15;;;27.00;36.40;;;;;;6200221;28;20035;-70
2021/10/31 13:09:13;;;;;;;2.85;0.25;;;27.00;36.40;;;;;;6198950;28;20044;-71
2021/10/31 13:12:29;;;;;;;1.08;0.35;;;26.90;36.50;;;;;;6200159;28;20088;-70
2021/10/31 13:15:33;;;;;;;0.65;0.17;;;26.80;36.60;;;;;;6198857;28;20046;-70
2021/10/31 13:18:34;;;;;;;0.63;0.40;;;26.80;36.80;;;;;;6198055;28;20173;-70
2021/10/31 13:21:42;;;;;;;0.30;0.20;;;26.70;37.00;;;;;;6198935;28;20034;-71
2021/10/31 13:24:50;;;;;;;0.17;0.17;;;26.70;36.80;;;;;;6199485;28;20069;-70
2021/10/31 13:27:54;;;;;;;0.15;0.15;;;26.70;36.80;;;;;;6199781;28;20387;-70
2021/10/31 13:31:21;;;;;;;0.30;0.30;;;26.70;36.90;;;;;;6201095;28;20054;-70
2021/10/31 13:34:21;;;;;;;0.00;0.00;;;26.70;37.10;;;;;;6176011;28;20093;-70
2021/10/31 13:37:24;;;;;;;0.10;0.10;;;26.60;36.90;;;;;;6175238;28;20452;-70
2021/10/31 13:40:25;;;;;;;0.50;0.25;;;26.60;37.00;;;;;;6175076;28;20043;-71
2021/10/31 13:43:35;;;;;;;0.57;0.20;;;26.60;37.10;;;;;;6190323;28;20448;-70
2021/10/31 13:46:37;;;;;;;0.15;0.13;;;26.60;37.10;;;;;;6191390;28;20464;-71
2021/10/31 13:49:45;;;;;;;0.10;0.10;;;26.60;37.10;;;;;;6185997;28;20074;-70
2021/10/31 13:52:50;;;;;;;0.40;0.30;;;26.50;37.00;;;;;;6198861;28;20050;-70
2021/10/31 13:55:51;;;;;;;0.00;0.00;;;26.50;36.90;;;;;;6199524;28;20034;-70
2021/10/31 13:58:53;;;;;;;0.35;0.10;;;26.50;36.70;;;;;;6199282;28;20093;-70
2021/10/31 14:01:58;;;;;;;0.08;0.08;;;26.50;37.40;;;;;;6199061;28;20043;-70
2021/10/31 14:05:06;;;;;;;0.25;0.10;;;26.40;36.70;;;;;;6199206;28;20041;-71
2021/10/31 14:08:07;;;;;;;0.30;0.20;;;26.30;36.70;;;;;;6198863;28;20372;-71
2021/10/31 14:11:15;;;;;;;0.32;0.20;;;26.30;36.90;;;;;;6198695;28;20064;-71
2021/10/31 14:14:36;;;;;;;0.00;0.00;;;26.20;37.00;;;;;;6198775;28;20117;-70
2021/10/31 14:17:59;;;;;;;0.47;0.10;;;26.10;37.10;;;;;;6198383;28;20034;-71
2021/10/31 14:21:05;;;;;;;3.63;0.30;;;26.10;37.50;;;;;;6198263;28;20428;-70
2021/10/31 14:24:09;;;;;;;0.30;0.13;;;26.00;37.70;;;;;;6199209;28;20034;-70
2021/10/31 14:27:21;;;;;;;0.10;0.10;;;26.00;37.80;;;;;;6197727;28;20456;-71
2021/10/31 14:30:29;;;;;;;0.52;0.28;;;25.90;37.80;;;;;;6198058;28;20046;-71
2021/10/31 14:33:32;;;;;;;0.20;0.20;;;25.90;38.00;;;;;;6174480;28;20027;-70
2021/10/31 14:36:33;;;;;;;0.17;0.17;;;25.90;38.10;;;;;;6174336;28;20526;-70
2021/10/31 14:39:34;;;;;;;0.10;0.10;;;25.80;37.90;;;;;;6173654;28;20046;-71
2021/10/31 14:42:35;;;;;;;0.52;0.40;;;25.80;37.90;;;;;;6196595;28;20034;-71
2021/10/31 14:45:36;;;;;;;0.10;0.10;;;25.70;38.00;;;;;;6182102;28;20121;-71
2021/10/31 14:48:40;;;;;;;0.10;0.10;;;25.70;38.20;;;;;;6213485;28;20050;-71
2021/10/31 14:51:48;;;;;;;3.97;0.40;;;25.70;38.10;;;;;;6197568;28;20034;-70
2021/10/31 14:54:51;;;;;;;0.43;0.20;;;25.70;38.30;;;;;;6198711;28;20396;-72
2021/10/31 14:57:55;;;;;;;0.10;0.10;;;25.60;38.20;;;;;;6198058;28;20034;-71
2021/10/31 15:00:56;;;;;;;0.25;0.10;;;25.60;38.30;;;;;;6197644;28;20093;-70
2021/10/31 15:03:57;;;;;;;0.40;0.22;;;25.60;38.30;;;;;;6197798;28;20120;-71
2021/10/31 15:06:58;;;;;;;2.08;0.20;;;25.50;38.20;;;;;;6198895;28;20522;-71
2021/10/31 15:10:00;;;;;;;0.20;0.20;;;25.50;38.20;;;;;;6197474;28;20054;-71
2021/10/31 15:13:01;;;;;;;0.10;0.10;;;25.50;38.30;;;;;;6174579;28;20037;-70
2021/10/31 15:16:02;;;;;;;0.20;0.17;;;25.50;38.20;;;;;;6171528;28;20173;-71
2021/10/31 15:19:05;;;;;;;0.55;0.10;;;25.40;38.30;;;;;;6211629;28;20038;-71
2021/10/31 15:22:06;;;;;;;1.38;0.40;;;25.40;38.50;;;;;;6198632;28;20424;-70
2021/10/31 15:25:08;;;;;;;0.10;0.10;;;25.30;38.50;;;;;;6197046;28;20030;-70
2021/10/31 15:28:09;;;;;;;0.20;0.20;;;25.30;39.20;;;;;;6180263;28;20112;-71
2021/10/31 15:31:10;;;;;;;0.57;0.22;;;25.30;38.70;;;;;;6196771;28;20042;-71
2021/10/31 15:34:11;;;;;;;0.20;0.20;;;25.20;38.60;;;;;;6196917;28;20341;-71
2021/10/31 15:37:14;;;;;;;0.10;0.10;;;25.20;38.60;;;;;;6197861;28;20045;-71
2021/10/31 15:40:15;;;;;;;0.20;0.20;;;25.10;38.70;;;;;;6196225;28;20078;-71
2021/10/31 15:43:16;;;;;;;2.83;0.20;;;25.10;38.80;;;;;;6194282;28;20030;-71
2021/10/31 15:46:18;;;;;;;0.20;0.20;;;25.10;38.90;;;;;;6196367;28;20038;-71
2021/10/31 15:49:19;;;;;;;3.88;0.30;;;25.00;38.90;;;;;;6196135;28;20046;-71
2021/10/31 15:52:20;;;;;;;0.73;0.20;;;25.00;39.00;;;;;;6197168;28;20053;-71
2021/10/31 15:55:21;;;;;;;0.10;0.10;;;24.90;39.10;;;;;;6196060;28;20069;-69
2021/10/31 15:58:26;;;;;;;0.20;0.20;;;24.90;39.20;;;;;;6196647;28;20038;-69
2021/10/31 16:01:27;;;;;;;0.05;0.05;;;24.90;39.20;;;;;;6197806;28;20448;-70